aviador You're here:

RPLB Decoded Metar

OLONGAPO/SUBIC in PHILIPPINES
Report Time2018-04-26 22:00:00
UTC Time2018-04-26 22:43:00
Flight Rules vfr VFR
Wind090° at 06 kt
W.Decomp.*RWY 07: 5.6 kt HW 2.2 kt RCW
W.Rank090° ranks 5
Current wind is below 090° avg. (7.1)
Visibility9999 m
Phenomena:N/A
Clouds:Few CB 018 Hf
Few 020 Hf
Expected CloudBase > 1,600 ft AGL from Temp-Dew spread
CeilingNone
Temp27°C (ISA +12)
Dew Point23°C (79% RH)
Heat Index29.6°C
QNH1009 hPa
Density Alt1,955 ft
Elevation56 ft
Report Wrong Elevation
Raw Report
RPLB 262200Z 09006KT 9999 FEW018CB FEW020 27/23 Q1009 NOSIG RMK
A2980 CB NW=

Extra information for RPLB:More info

Metar Taf Metar & Taf Last 4 Metars F.Rules Stats Wind Profile Meteogram Temp Stats Airport Information Weather charts Add Link Nearby VenuesMetar ALERT Operation Metar Decoded Social comments